createdAt,value
2023-02-09T00:55:24.551Z,500.00
2023-02-09T00:56:25.497Z,500.00
2023-02-09T00:57:25.484Z,500.00
2023-02-09T00:58:25.473Z,500.00
2023-02-09T00:59:25.467Z,500.00
2023-02-09T01:00:25.608Z,500.00
2023-02-09T01:01:25.553Z,429.00
2023-02-09T01:02:25.442Z,400.00
2023-02-09T01:03:25.429Z,400.00
2023-02-09T01:04:25.469Z,400.00
2023-02-09T01:05:25.411Z,400.00
2023-02-09T01:06:25.410Z,400.00
2023-02-09T01:07:25.394Z,426.00
2023-02-09T01:08:25.391Z,455.00
2023-02-09T01:09:25.373Z,481.00
2023-02-09T01:10:25.365Z,500.00
2023-02-09T01:11:25.387Z,499.00
2023-02-09T01:12:25.348Z,502.00
2023-02-09T01:13:25.337Z,501.00
2023-02-09T01:14:25.332Z,501.00
2023-02-09T01:15:25.323Z,503.00
2023-02-09T01:16:25.344Z,500.00
2023-02-09T01:17:25.316Z,501.00
2023-02-09T01:18:25.297Z,501.00
2023-02-09T01:19:25.287Z,502.00
2023-02-09T01:20:25.274Z,501.00
2023-02-09T01:21:25.268Z,503.00
2023-02-09T01:22:25.259Z,500.00
2023-02-09T01:23:25.255Z,504.00
2023-02-09T01:24:25.239Z,501.00
2023-02-09T01:25:25.232Z,505.00
2023-02-09T01:26:25.230Z,504.00
2023-02-09T01:27:25.237Z,503.00
2023-02-09T01:28:25.252Z,504.00
2023-02-09T01:29:25.191Z,499.00
2023-02-09T01:30:25.186Z,500.00
2023-02-09T01:31:25.270Z,500.00
2023-02-09T01:32:25.200Z,505.00
2023-02-09T01:33:25.185Z,500.00
2023-02-09T01:34:25.147Z,501.00
2023-02-09T01:35:25.142Z,505.00
2023-02-09T01:36:25.134Z,501.00
2023-02-09T01:37:25.124Z,504.00
2023-02-09T01:38:25.122Z,502.00
2023-02-09T01:39:25.114Z,503.00
2023-02-09T01:40:25.101Z,506.00
2023-02-09T01:41:25.087Z,502.00
2023-02-09T01:50:25.029Z,500.00
2023-02-09T01:51:25.001Z,508.00
2023-02-09T02:24:23.703Z,506.00
2023-02-09T03:27:24.150Z,512.00
2023-02-09T04:35:23.552Z,511.00
2023-02-09T04:36:23.690Z,513.00
2023-02-09T04:37:23.535Z,508.00
2023-02-09T04:38:23.520Z,511.00
2023-02-09T04:39:23.532Z,506.00
2023-02-09T04:40:23.501Z,511.00
2023-02-09T04:41:23.493Z,511.00
2023-02-09T04:42:23.482Z,511.00
2023-02-09T04:43:23.485Z,510.00
2023-02-09T04:44:23.470Z,511.00
2023-02-09T04:45:23.460Z,508.00
2023-02-09T04:46:23.449Z,509.00
2023-02-09T04:47:23.449Z,513.00
2023-02-09T04:48:23.444Z,510.00
2023-02-09T04:49:23.421Z,514.00
2023-02-09T04:50:23.414Z,512.00
2023-02-09T04:51:23.403Z,510.00
2023-02-09T04:52:23.391Z,507.00
2023-02-09T04:53:23.392Z,512.00
2023-02-09T04:55:23.390Z,507.00
2023-02-09T04:56:23.355Z,511.00
2023-02-09T04:57:23.355Z,511.00
2023-02-09T04:58:23.343Z,512.00
2023-02-09T04:59:23.333Z,513.00
2023-02-09T05:00:23.322Z,512.00
2023-02-09T05:01:23.407Z,512.00
2023-02-09T05:02:23.302Z,512.00
2023-02-09T05:03:24.709Z,508.00
2023-02-09T05:04:23.287Z,511.00
2023-02-09T05:05:23.344Z,517.00
2023-02-09T05:06:23.270Z,508.00
2023-02-09T05:07:23.260Z,507.00
2023-02-09T05:08:23.254Z,510.00
2023-02-09T05:09:23.239Z,515.00
2023-02-09T05:10:23.295Z,514.00
2023-02-09T05:11:25.324Z,508.00
2023-02-09T05:12:23.213Z,510.00
2023-02-09T05:13:23.207Z,519.00
2023-02-09T05:14:23.204Z,518.00
2023-02-09T05:15:23.186Z,512.00
2023-02-09T05:16:23.202Z,512.00
2023-02-09T05:17:23.168Z,513.00
2023-02-09T05:18:23.174Z,512.00
2023-02-09T05:19:23.157Z,513.00
2023-02-09T05:20:23.147Z,514.00
2023-02-09T05:21:23.134Z,514.00
2023-02-09T05:22:23.125Z,511.00
2023-02-09T05:23:23.118Z,520.00
2023-02-09T05:24:23.107Z,522.00
2023-02-09T05:25:23.104Z,510.00
2023-02-09T05:26:23.095Z,514.00
2023-02-09T05:27:23.116Z,514.00
2023-02-09T05:28:23.110Z,510.00
2023-02-09T05:29:23.071Z,513.00
2023-02-09T05:30:23.058Z,514.00
2023-02-09T05:31:23.150Z,510.00
2023-02-09T05:32:23.074Z,511.00
2023-02-09T05:33:23.034Z,518.00
2023-02-09T05:34:23.021Z,512.00
2023-02-09T05:35:23.013Z,511.00
2023-02-09T05:36:23.002Z,517.00
2023-02-09T05:37:22.990Z,511.00
2023-02-09T05:38:22.984Z,510.00
2023-02-09T05:39:22.976Z,515.00
2023-02-09T05:40:22.966Z,511.00
2023-02-09T05:41:22.966Z,514.00
2023-02-09T05:42:22.950Z,514.00
2023-02-09T05:43:22.963Z,514.00
2023-02-09T05:44:22.924Z,517.00
2023-02-09T05:45:22.916Z,519.00
2023-02-09T05:46:23.000Z,511.00
2023-02-09T05:47:22.904Z,514.00
2023-02-09T05:48:22.892Z,510.00
2023-02-09T05:49:22.889Z,509.00
2023-02-09T05:50:22.873Z,520.00
2023-02-09T05:51:22.867Z,517.00
2023-02-09T05:52:22.861Z,514.00
2023-02-09T05:53:22.851Z,516.00
2023-02-09T05:54:22.850Z,511.00
2023-02-09T05:55:22.854Z,514.00
2023-02-09T05:56:22.823Z,513.00
2023-02-09T05:57:22.828Z,509.00
2023-02-09T05:58:22.818Z,513.00
2023-02-09T05:59:22.813Z,513.00
2023-02-09T06:00:22.784Z,518.00
2023-02-09T06:01:22.786Z,519.00
2023-02-09T06:02:22.817Z,514.00
2023-02-09T06:03:22.853Z,516.00
2023-02-09T06:04:22.748Z,515.00
2023-02-09T06:05:22.737Z,519.00
2023-02-09T06:06:22.760Z,512.00
2023-02-09T06:07:22.721Z,513.00
2023-02-09T06:08:22.713Z,517.00
2023-02-09T06:09:22.705Z,508.00
2023-02-09T06:10:22.696Z,512.00
2023-02-09T06:11:22.686Z,513.00
2023-02-09T06:22:22.704Z,519.00
2023-02-09T06:32:22.729Z,519.00
2023-02-09T06:41:22.716Z,528.00
2023-02-09T06:42:22.718Z,524.00
2023-02-09T06:47:22.756Z,536.00
2023-02-09T06:49:22.728Z,537.00
2023-02-09T06:54:22.738Z,573.00
2023-02-09T06:56:22.723Z,593.00
2023-02-09T06:57:22.358Z,607.00
2023-02-09T07:01:22.766Z,614.00
2023-02-09T07:02:22.969Z,615.00
2023-02-09T07:05:28.599Z,614.00
2023-02-09T07:07:23.946Z,616.00
2023-02-09T07:08:53.995Z,615.00
2023-02-09T07:16:25.404Z,620.00
2023-02-09T08:33:22.794Z,597.00
2023-02-09T10:03:20.681Z,573.00
2023-02-09T10:04:20.731Z,561.00
2023-02-09T10:05:20.818Z,532.00
2023-02-09T11:25:23.148Z,1102.00
2023-02-09T11:26:23.144Z,1103.00
2023-02-09T11:29:23.097Z,1121.00
2023-02-09T16:28:17.292Z,1327.00
2023-02-09T16:29:17.243Z,1338.00
2023-02-09T16:30:17.448Z,1326.00
2023-02-09T16:32:17.201Z,1316.00
2023-02-09T16:33:17.183Z,1297.00
2023-02-09T16:34:17.169Z,1307.00
2023-02-09T16:35:17.586Z,1311.00
2023-02-09T16:36:17.176Z,1311.00
2023-02-09T16:37:17.146Z,1306.00
2023-02-09T16:38:17.143Z,1310.00
2023-02-09T16:39:17.161Z,1313.00
2023-02-09T16:40:17.129Z,1310.00
2023-02-09T16:41:17.108Z,1299.00
2023-02-09T16:42:17.100Z,1300.00
2023-02-09T16:43:17.099Z,1284.00
2023-02-09T16:44:17.126Z,1303.00
2023-02-09T16:45:17.458Z,1292.00
2023-02-09T16:46:17.102Z,1298.00
2023-02-09T16:47:17.062Z,1284.00
2023-02-09T16:48:17.050Z,1282.00
2023-02-09T16:49:17.041Z,1290.00
2023-02-09T16:50:17.037Z,1280.00
2023-02-09T16:51:17.024Z,1283.00
2023-02-09T16:52:17.013Z,1282.00
2023-02-09T16:53:17.005Z,1278.00
2023-02-09T16:54:17.007Z,1285.00
2023-02-09T16:55:17.015Z,1283.00
2023-02-09T16:56:16.980Z,1260.00
2023-02-09T16:57:17.004Z,1252.00
2023-02-09T16:58:16.985Z,1269.00
2023-02-09T16:59:16.956Z,1250.00
2023-02-09T17:00:16.949Z,1269.00
2023-02-09T17:01:17.090Z,1254.00
2023-02-09T17:02:16.965Z,1255.00
2023-02-09T17:03:16.926Z,1271.00
2023-02-09T17:04:16.942Z,1253.00
2023-02-09T17:05:16.899Z,1252.00
2023-02-09T17:06:16.888Z,1238.00
2023-02-09T17:07:16.881Z,1256.00
2023-02-09T17:08:16.899Z,1247.00
2023-02-09T17:09:16.861Z,1252.00
2023-02-09T17:10:16.855Z,1231.00
2023-02-09T17:11:16.867Z,1251.00
2023-02-09T17:12:16.830Z,1228.00
2023-02-09T17:13:16.823Z,1240.00
2023-02-09T17:14:16.814Z,1236.00
2023-02-09T17:15:28.890Z,1244.00
2023-02-09T17:16:16.872Z,1245.00
2023-02-09T17:17:16.788Z,1250.00
2023-02-09T17:18:16.778Z,1251.00
2023-02-09T17:19:16.777Z,1252.00
2023-02-09T17:20:16.766Z,1250.00
2023-02-09T17:21:16.755Z,1249.00
2023-02-09T17:22:16.747Z,1238.00
2023-02-09T17:23:16.741Z,1226.00
2023-02-09T17:24:16.733Z,1238.00
2023-02-09T17:25:16.791Z,1225.00
2023-02-09T17:26:16.714Z,1240.00
2023-02-09T17:27:16.721Z,1231.00
2023-02-09T17:28:16.798Z,1229.00
2023-02-09T17:29:16.682Z,1224.00
2023-02-09T17:30:16.671Z,1228.00
2023-02-09T17:31:16.699Z,1216.00
2023-02-09T17:32:16.730Z,1220.00
2023-02-09T17:33:16.679Z,1207.00
2023-02-09T17:34:16.638Z,1207.00
2023-02-09T17:35:16.649Z,1210.00
2023-02-09T17:36:27.597Z,1233.00
2023-02-09T17:37:16.615Z,1234.00
2023-02-09T17:38:16.613Z,1238.00
2023-02-09T17:39:16.593Z,1237.00
2023-02-09T17:40:16.602Z,1234.00
2023-02-09T17:41:16.570Z,1235.00
2023-02-09T17:42:16.574Z,1226.00
2023-02-09T17:43:16.584Z,1224.00
2023-02-09T17:44:46.548Z,1230.00
2023-02-09T17:45:16.579Z,1231.00
2023-02-09T17:46:16.635Z,1232.00
2023-02-09T17:47:16.517Z,1235.00
2023-02-09T17:48:16.518Z,1236.00
2023-02-09T17:49:16.503Z,1233.00
2023-02-09T17:50:16.501Z,1222.00
2023-02-09T17:51:16.481Z,1237.00
2023-02-09T17:52:16.480Z,1221.00
2023-02-09T17:53:16.478Z,1217.00
2023-02-09T17:54:16.455Z,1219.00
2023-02-09T17:55:16.447Z,1212.00
2023-02-09T17:56:16.884Z,1221.00
2023-02-09T17:57:16.560Z,1224.00
2023-02-09T17:58:16.426Z,1212.00
2023-02-09T17:59:16.436Z,1224.00
2023-02-09T18:00:16.406Z,1217.00
2023-02-09T18:01:16.478Z,1205.00
2023-02-09T18:02:16.388Z,1202.00
2023-02-09T18:03:16.489Z,1200.00
2023-02-09T18:04:16.372Z,1204.00
2023-02-09T18:05:16.394Z,1206.00
2023-02-09T18:06:16.355Z,1202.00
2023-02-09T18:07:16.340Z,1207.00
2023-02-09T18:08:16.340Z,1194.00
2023-02-09T18:09:16.364Z,1191.00
2023-02-09T18:10:16.311Z,1205.00
2023-02-09T18:11:16.314Z,1191.00
2023-02-09T18:12:16.304Z,1203.00
2023-02-09T18:13:16.288Z,1218.00
2023-02-09T18:14:16.286Z,1181.00
2023-02-09T18:15:16.300Z,1181.00
2023-02-09T18:16:16.263Z,1179.00
2023-02-09T18:17:16.249Z,1189.00
2023-02-09T18:18:16.241Z,1184.00
2023-02-09T18:19:16.252Z,1175.00
2023-02-09T18:20:16.230Z,1177.00
2023-02-09T18:21:16.239Z,1167.00
2023-02-09T18:22:16.208Z,1168.00
2023-02-09T18:23:16.210Z,1177.00
2023-02-09T18:24:16.190Z,1184.00
2023-02-09T18:25:16.206Z,1185.00
2023-02-09T18:26:16.171Z,1181.00
2023-02-09T18:27:16.159Z,1195.00
2023-02-09T18:28:16.294Z,1188.00
2023-02-09T18:29:16.146Z,1183.00
2023-02-09T18:30:16.133Z,1186.00
2023-02-09T18:31:16.196Z,1166.00
2023-02-09T18:32:16.125Z,1175.00
2023-02-09T18:33:16.107Z,1172.00
2023-02-09T18:34:16.098Z,1169.00
2023-02-09T18:35:16.211Z,1160.00
2023-02-09T18:36:16.078Z,1180.00
2023-02-09T18:37:16.095Z,1167.00
2023-02-09T18:38:16.064Z,1164.00
2023-02-09T18:39:16.058Z,1183.00
2023-02-09T18:40:16.044Z,1182.00
2023-02-09T18:41:16.036Z,1180.00
2023-02-09T18:42:16.086Z,1164.00
2023-02-09T18:43:16.014Z,1153.00
2023-02-09T18:44:16.004Z,1168.00
2023-02-09T18:45:16.075Z,1173.00
2023-02-09T18:46:16.034Z,1174.00
2023-02-09T18:47:16.015Z,1163.00
2023-02-09T18:48:15.971Z,1170.00
2023-02-09T18:49:15.958Z,1153.00
2023-02-09T18:50:15.955Z,1184.00
2023-02-09T18:51:15.944Z,1166.00
2023-02-09T18:52:15.939Z,1169.00
2023-02-09T18:53:15.922Z,1150.00
2023-02-09T18:54:15.930Z,1162.00
2023-02-09T18:55:15.932Z,1157.00
2023-02-09T18:56:15.892Z,1164.00
2023-02-09T18:57:15.887Z,1160.00
2023-02-09T18:58:15.882Z,1162.00
2023-02-09T18:59:15.874Z,1143.00
2023-02-09T19:00:15.858Z,1152.00
2023-02-09T19:01:15.885Z,1156.00
2023-02-09T19:02:15.903Z,1170.00
2023-02-09T19:03:15.866Z,1141.00
2023-02-09T19:04:15.826Z,1157.00
2023-02-09T19:05:15.821Z,1166.00
2023-02-09T19:06:15.809Z,1158.00
2023-02-09T19:07:15.801Z,1159.00
2023-02-09T19:08:15.796Z,1148.00
2023-02-09T19:09:15.785Z,1144.00
2023-02-09T19:10:15.787Z,1146.00
2023-02-09T19:11:15.781Z,1155.00
2023-02-09T19:12:15.761Z,1142.00
2023-02-09T19:13:15.747Z,1159.00
2023-02-09T19:14:15.752Z,1162.00
2023-02-09T19:15:15.731Z,1157.00
2023-02-09T19:16:15.754Z,1150.00
2023-02-09T19:17:15.724Z,1159.00
2023-02-09T19:18:15.704Z,1143.00
2023-02-09T19:19:15.723Z,1149.00
2023-02-09T19:20:15.687Z,1140.00
2023-02-09T19:21:15.681Z,1144.00
2023-02-09T19:22:15.666Z,1138.00
2023-02-09T19:23:15.665Z,1139.00
2023-02-09T19:24:15.658Z,1152.00
2023-02-09T19:25:15.668Z,1147.00
2023-02-09T19:26:15.634Z,1136.00
2023-02-09T19:27:15.621Z,1146.00
2023-02-09T19:28:15.728Z,1146.00
2023-02-09T19:29:15.616Z,1141.00
2023-02-09T19:30:15.608Z,1141.00
2023-02-09T19:31:15.693Z,1128.00
2023-02-09T19:32:15.575Z,1138.00
2023-02-09T19:33:15.582Z,1138.00
2023-02-09T19:34:15.575Z,1135.00
2023-02-09T19:35:15.586Z,1143.00
2023-02-09T19:36:15.545Z,1140.00
2023-02-09T19:37:15.540Z,1129.00
2023-02-09T19:38:15.531Z,1126.00
2023-02-09T19:39:15.523Z,1137.00
2023-02-09T19:40:15.508Z,1112.00
2023-02-09T19:41:15.500Z,1130.00
2023-02-09T19:42:15.505Z,1139.00
2023-02-09T19:43:15.482Z,1122.00
2023-02-09T19:44:15.476Z,1121.00
2023-02-09T19:45:15.466Z,1130.00
2023-02-09T19:46:15.499Z,1122.00
2023-02-09T19:47:15.442Z,1133.00
2023-02-09T19:48:15.443Z,1127.00
2023-02-09T19:49:15.425Z,1111.00
2023-02-09T19:50:15.425Z,1117.00
2023-02-09T19:51:15.455Z,1138.00
2023-02-09T19:52:15.409Z,1129.00
2023-02-09T19:53:15.401Z,1142.00
2023-02-09T19:54:15.380Z,1137.00
2023-02-09T19:55:15.375Z,1121.00
2023-02-09T19:56:15.368Z,1132.00
2023-02-09T19:57:15.366Z,1142.00
2023-02-09T19:58:15.347Z,1152.00
2023-02-09T19:59:15.340Z,1140.00
2023-02-09T20:00:15.340Z,1133.00
2023-02-09T20:01:15.317Z,1141.00
2023-02-09T20:02:15.312Z,1124.00
2023-02-09T20:03:15.343Z,1139.00
2023-02-09T20:04:15.301Z,1132.00
2023-02-09T20:05:15.285Z,1134.00
2023-02-09T20:06:15.275Z,1138.00
2023-02-09T20:07:15.300Z,1138.00
2023-02-09T20:08:15.261Z,1122.00
2023-02-09T20:09:15.248Z,1135.00
2023-02-09T20:10:15.242Z,1133.00
2023-02-09T20:11:15.232Z,1122.00
2023-02-09T20:12:15.219Z,1136.00
2023-02-09T20:13:15.383Z,1122.00
2023-02-09T20:14:15.205Z,1135.00
2023-02-09T20:15:15.201Z,1124.00
2023-02-09T20:16:15.250Z,1116.00
2023-02-09T20:17:15.171Z,1103.00
2023-02-09T20:18:17.088Z,1103.00
2023-02-09T20:19:15.165Z,1105.00
2023-02-09T20:20:15.157Z,1109.00
2023-02-09T20:21:15.139Z,1113.00
2023-02-09T20:22:15.139Z,1118.00
2023-02-09T20:23:15.148Z,1119.00
2023-02-09T20:24:15.117Z,1118.00
2023-02-09T20:25:15.118Z,1111.00
2023-02-09T20:26:15.095Z,1119.00
2023-02-09T20:27:15.087Z,1105.00
2023-02-09T20:28:15.146Z,1095.00
2023-02-09T20:29:15.075Z,1120.00
2023-02-09T20:30:15.058Z,1103.00
2023-02-09T20:31:15.954Z,1112.00
2023-02-09T20:32:15.039Z,1111.00
2023-02-09T20:33:15.033Z,1128.00
2023-02-09T20:34:15.022Z,1125.00
2023-02-09T20:35:15.025Z,1122.00
2023-02-09T20:36:15.008Z,1111.00
2023-02-09T20:37:15.010Z,1097.00
2023-02-09T20:38:14.988Z,1119.00
2023-02-09T20:39:15.000Z,1118.00
2023-02-09T20:40:14.976Z,1108.00
2023-02-09T20:41:14.960Z,1094.00
2023-02-09T20:42:14.953Z,1110.00
2023-02-09T20:43:14.944Z,1116.00
2023-02-09T20:44:14.935Z,1113.00
2023-02-09T20:45:14.928Z,1118.00
2023-02-09T20:46:14.913Z,1104.00
2023-02-09T20:47:14.907Z,1111.00
2023-02-09T20:48:14.900Z,1099.00
2023-02-09T20:49:14.895Z,1113.00
2023-02-09T20:50:14.881Z,1110.00
2023-02-09T20:51:14.876Z,1098.00
2023-02-09T20:52:14.859Z,1088.00
2023-02-09T20:53:14.848Z,1108.00
2023-02-09T20:54:14.844Z,1080.00
2023-02-09T20:55:14.886Z,1072.00
2023-02-09T20:56:14.825Z,1089.00
2023-02-09T20:57:14.822Z,1098.00
2023-02-09T20:58:14.809Z,1103.00
2023-02-09T20:59:14.804Z,1095.00
2023-02-09T21:00:14.811Z,1099.00
2023-02-09T21:01:14.816Z,1079.00
2023-02-09T21:02:14.811Z,1104.00
2023-02-09T21:03:14.767Z,1097.00
2023-02-09T21:04:14.760Z,1082.00
2023-02-09T21:05:14.749Z,1095.00
2023-02-09T21:06:14.740Z,1096.00
2023-02-09T21:07:14.733Z,1100.00
2023-02-09T21:08:14.717Z,1096.00
2023-02-09T21:09:14.710Z,1085.00
2023-02-09T21:10:14.700Z,1101.00
2023-02-09T21:11:14.811Z,1097.00
2023-02-09T21:12:14.720Z,1094.00
2023-02-09T21:13:14.673Z,1111.00
2023-02-09T21:14:22.167Z,1100.00
2023-02-09T21:15:14.671Z,1101.00
2023-02-09T21:16:14.683Z,1102.00
2023-02-09T21:17:14.725Z,1107.00
2023-02-09T21:18:14.632Z,1091.00
2023-02-09T21:19:14.622Z,1094.00
2023-02-09T21:20:14.613Z,1086.00
2023-02-09T21:21:14.608Z,1085.00
2023-02-09T21:22:14.596Z,1079.00
2023-02-09T21:23:14.592Z,1075.00
2023-02-09T21:24:14.573Z,1096.00
2023-02-09T21:25:14.562Z,1093.00
2023-02-09T21:26:14.560Z,1084.00
2023-02-09T21:27:14.569Z,1087.00
2023-02-09T21:28:14.555Z,1088.00
2023-02-09T21:29:14.534Z,1095.00
2023-02-09T21:30:14.515Z,1100.00
2023-02-09T21:31:14.560Z,1110.00
2023-02-09T21:32:14.499Z,1099.00
2023-02-09T21:33:14.491Z,1096.00
2023-02-09T21:34:14.493Z,1115.00
2023-02-09T21:35:14.473Z,1108.00
2023-02-09T21:36:14.463Z,1098.00
2023-02-09T21:37:14.456Z,1102.00
2023-02-09T21:38:14.444Z,1100.00
2023-02-09T21:39:14.453Z,1095.00
2023-02-09T21:40:14.427Z,1107.00
2023-02-09T21:41:14.418Z,1097.00
2023-02-09T21:42:14.412Z,1114.00
2023-02-09T21:43:14.430Z,1096.00
2023-02-09T21:44:14.394Z,1113.00
2023-02-09T21:45:14.386Z,1097.00
2023-02-09T21:46:14.468Z,1107.00
2023-02-09T21:47:14.367Z,1124.00
2023-02-09T21:48:14.353Z,1121.00
2023-02-09T21:49:14.362Z,1096.00
2023-02-09T21:50:14.343Z,1113.00
2023-02-09T21:51:14.330Z,1119.00
2023-02-09T21:52:14.325Z,1119.00
2023-02-09T21:53:14.310Z,1121.00
2023-02-09T21:54:14.307Z,1104.00
2023-02-09T21:55:14.288Z,1111.00
2023-02-09T21:56:14.286Z,1120.00
2023-02-09T21:57:14.318Z,1107.00
2023-02-09T21:58:14.260Z,1109.00
2023-02-09T21:59:14.277Z,1107.00
2023-02-09T22:00:14.250Z,1100.00
2023-02-09T22:01:14.347Z,1102.00
2023-02-09T22:02:14.228Z,1097.00
2023-02-09T22:03:14.233Z,1091.00
2023-02-09T22:04:14.269Z,1095.00
2023-02-09T22:05:14.228Z,1098.00
2023-02-09T22:06:14.195Z,1101.00
2023-02-09T22:07:14.182Z,1091.00
2023-02-09T22:08:14.168Z,1092.00
2023-02-09T22:09:14.162Z,1091.00
2023-02-09T22:10:14.152Z,1089.00
2023-02-09T22:11:14.142Z,1095.00
2023-02-09T22:12:14.149Z,1101.00
2023-02-09T22:13:14.123Z,1081.00
2023-02-09T22:14:14.127Z,1096.00
2023-02-09T22:15:14.129Z,1126.00
2023-02-09T22:16:14.173Z,1110.00
2023-02-09T22:17:14.092Z,1125.00
2023-02-09T22:18:14.081Z,1111.00
2023-02-09T22:19:14.075Z,1103.00
2023-02-09T22:20:14.060Z,1096.00
2023-02-09T22:21:14.053Z,1106.00
2023-02-09T22:22:14.042Z,1099.00
2023-02-09T22:23:14.034Z,1099.00
2023-02-09T22:24:14.027Z,1087.00
2023-02-09T22:25:14.020Z,1080.00
2023-02-09T22:26:14.046Z,1080.00
2023-02-09T22:27:14.006Z,1076.00
2023-02-09T22:28:14.123Z,1099.00
2023-02-09T22:29:13.983Z,1079.00
2023-02-09T22:30:13.970Z,1104.00
2023-02-09T22:31:14.099Z,1076.00
2023-02-09T22:32:13.965Z,1068.00
2023-02-09T22:33:13.962Z,1071.00
2023-02-09T22:34:13.944Z,1076.00
2023-02-09T22:35:13.925Z,1066.00
2023-02-09T22:36:13.913Z,1063.00
2023-02-09T22:37:13.905Z,1084.00
2023-02-09T22:38:13.894Z,1084.00
2023-02-09T22:39:13.901Z,1096.00
2023-02-09T22:40:13.881Z,1093.00
2023-02-09T22:41:13.869Z,1107.00
2023-02-09T22:42:13.860Z,1103.00
2023-02-09T22:43:13.848Z,1106.00
2023-02-09T22:44:13.852Z,1122.00
2023-02-09T22:45:13.841Z,1101.00
2023-02-09T22:46:13.876Z,1107.00
2023-02-09T22:47:13.840Z,1088.00
2023-02-09T22:48:13.809Z,1108.00
2023-02-09T22:49:13.807Z,1111.00
2023-02-09T22:50:13.791Z,1102.00
2023-02-09T22:51:13.781Z,1103.00
2023-02-09T22:52:13.772Z,1117.00
2023-02-09T22:53:13.772Z,1109.00
2023-02-09T22:54:13.762Z,1099.00
2023-02-09T22:55:13.755Z,1103.00
2023-02-09T22:56:13.755Z,1096.00
2023-02-09T22:57:13.744Z,1104.00
2023-02-09T22:58:13.742Z,1104.00
2023-02-09T22:59:13.732Z,1105.00
2023-02-09T23:00:13.714Z,1108.00
2023-02-09T23:01:13.751Z,1112.00
2023-02-09T23:02:13.700Z,1119.00
2023-02-09T23:03:13.710Z,1118.00
2023-02-09T23:04:13.782Z,1109.00
2023-02-09T23:05:13.671Z,1124.00
2023-02-09T23:06:13.667Z,1142.00
2023-02-09T23:07:13.653Z,1142.00
2023-02-09T23:08:13.648Z,1139.00
2023-02-09T23:09:13.636Z,1132.00
2023-02-09T23:10:13.626Z,1140.00
2023-02-09T23:11:13.626Z,1137.00
2023-02-09T23:12:13.607Z,1139.00
2023-02-09T23:13:13.596Z,1127.00
2023-02-09T23:14:13.588Z,1128.00
2023-02-09T23:15:13.583Z,1120.00
2023-02-09T23:16:13.634Z,1133.00
2023-02-09T23:17:13.565Z,1135.00
2023-02-09T23:18:13.563Z,1140.00
2023-02-09T23:19:13.628Z,1115.00
2023-02-09T23:20:13.541Z,1118.00
2023-02-09T23:21:13.532Z,1137.00
2023-02-09T23:22:13.529Z,1135.00
2023-02-09T23:23:13.510Z,1134.00
2023-02-09T23:24:13.510Z,1142.00
2023-02-09T23:25:13.501Z,1129.00
2023-02-09T23:26:13.487Z,1122.00
2023-02-09T23:27:13.484Z,1131.00
2023-02-09T23:28:13.517Z,1123.00
2023-02-09T23:29:13.482Z,1128.00
2023-02-09T23:30:13.443Z,1145.00
2023-02-09T23:31:13.466Z,1129.00
2023-02-09T23:32:13.425Z,1135.00
2023-02-09T23:33:13.424Z,1126.00
2023-02-09T23:34:13.405Z,1127.00
2023-02-09T23:35:14.383Z,1114.00
2023-02-09T23:36:13.388Z,1147.00
2023-02-09T23:37:18.584Z,1155.00
2023-02-09T23:38:13.378Z,1156.00
2023-02-09T23:39:13.366Z,1151.00
2023-02-09T23:40:13.361Z,1142.00
2023-02-09T23:41:13.340Z,1135.00
2023-02-09T23:42:13.333Z,1128.00
2023-02-09T23:43:13.332Z,1129.00
2023-02-09T23:44:13.323Z,1135.00
2023-02-09T23:45:13.310Z,1128.00
2023-02-09T23:46:13.333Z,1109.00
2023-02-09T23:47:13.299Z,1121.00
2023-02-09T23:48:13.285Z,1131.00
2023-02-09T23:49:13.282Z,1138.00
2023-02-09T23:50:13.263Z,1129.00
2023-02-09T23:51:13.294Z,1141.00
2023-02-09T23:52:13.248Z,1129.00
2023-02-09T23:53:13.238Z,1122.00
2023-02-09T23:54:13.244Z,1141.00
2023-02-09T23:55:13.229Z,1142.00
2023-02-09T23:56:13.220Z,1132.00
2023-02-09T23:57:13.203Z,1129.00
2023-02-09T23:58:13.191Z,1132.00
2023-02-09T23:59:13.198Z,1132.00
